Time;durP1;ratioP1;P1;durP2;ratioP2;P2;SDS_P1;SDS_P2;PMS_P1;PMS_P2;Temp;Humidity;BMP_temperature;BMP_pressure;BME280_temperature;BME280_humidity;BME280_pressure;Samples;Min_cycle;Max_cycle;Signal;HPM_P1;HPM_P2
2022/07/02 00:00:50;;;;;;;11.00;2.65;;;;;;;15.24;83.53;102221.19;4988292;28;20037;-63
2022/07/02 00:03:22;;;;;;;8.18;2.42;;;;;;;15.26;83.74;102222.03;4988304;28;20022;-63
2022/07/02 00:05:57;;;;;;;8.40;2.17;;;;;;;15.24;83.85;102222.06;4975881;28;20109;-63
2022/07/02 00:08:24;;;;;;;7.22;2.53;;;;;;;15.24;83.82;102215.88;5008229;28;20045;-65
2022/07/02 00:10:51;;;;;;;8.05;2.20;;;;;;;15.28;83.74;102212.19;5007354;28;20088;-63
2022/07/02 00:13:17;;;;;;;10.57;2.70;;;;;;;15.36;83.63;102210.19;5007248;28;20042;-63
2022/07/02 00:15:43;;;;;;;10.10;2.90;;;;;;;15.48;83.27;102210.69;4993803;28;20037;-62
2022/07/02 00:18:09;;;;;;;12.02;2.10;;;;;;;15.52;82.75;102207.00;4988816;28;20350;-64
2022/07/02 00:20:37;;;;;;;9.82;2.47;;;;;;;15.59;82.78;102205.03;4987631;28;20030;-64
2022/07/02 00:23:02;;;;;;;8.02;2.25;;;;;;;15.66;82.76;102212.72;4988392;28;20029;-62
2022/07/02 00:25:28;;;;;;;9.05;2.45;;;;;;;15.63;82.37;102209.31;4987483;28;20286;-63
2022/07/02 00:27:54;;;;;;;7.60;2.47;;;;;;;15.71;81.83;102214.38;4987189;28;20170;-62
2022/07/02 00:30:19;;;;;;;8.05;1.73;;;;;;;15.66;81.83;102204.75;4988190;28;20492;-63
2022/07/02 00:32:45;;;;;;;10.55;2.40;;;;;;;15.72;81.65;102218.78;4991675;28;20040;-63
2022/07/02 00:35:13;;;;;;;6.93;1.90;;;;;;;15.76;81.45;102220.41;5007306;28;20108;-63
2022/07/02 00:37:39;;;;;;;3.65;1.77;;;;;;;15.78;81.01;102216.75;5003210;28;20535;-63
2022/07/02 00:40:06;;;;;;;8.65;2.05;;;;;;;15.76;80.45;102207.09;4987433;28;20022;-64
2022/07/02 00:42:32;;;;;;;15.07;2.28;;;;;;;15.79;79.88;102209.66;4986521;28;20113;-63
2022/07/02 00:44:57;;;;;;;6.93;1.90;;;;;;;15.75;79.68;102216.00;4986858;28;20165;-63
2022/07/02 00:47:24;;;;;;;7.63;1.80;;;;;;;15.77;78.92;102219.47;4986973;28;20121;-63
2022/07/02 00:49:49;;;;;;;8.25;2.33;;;;;;;15.78;78.71;102210.59;4986796;28;20033;-62
2022/07/02 00:52:15;;;;;;;9.90;1.95;;;;;;;15.82;78.29;102212.22;4986275;28;20023;-64
2022/07/02 00:54:40;;;;;;;5.07;1.75;;;;;;;15.86;77.76;102216.50;4988871;28;20044;-64
2022/07/02 00:57:06;;;;;;;8.95;1.70;;;;;;;15.89;77.37;102212.88;5002593;28;20377;-64
2022/07/02 00:59:32;;;;;;;8.43;1.92;;;;;;;15.86;77.46;102213.84;5007017;28;20142;-64
2022/07/02 01:01:59;;;;;;;6.25;1.52;;;;;;;15.86;77.06;102213.84;4992979;28;20436;-64
2022/07/02 01:04:29;;;;;;;6.13;2.00;;;;;;;15.83;76.97;102203.31;4987710;28;20098;-64
2022/07/02 01:06:57;;;;;;;11.57;2.03;;;;;;;15.78;76.82;102211.44;4986750;28;20041;-63
2022/07/02 01:12:08;;;;;;;7.28;1.73;;;;;;;15.68;76.89;102212.69;4986112;28;20092;-64
2022/07/02 01:14:34;;;;;;;5.32;1.40;;;;;;;15.67;76.63;102208.28;4986243;28;20031;-64
2022/07/02 01:16:59;;;;;;;4.18;1.60;;;;;;;15.65;76.91;102205.69;4985005;28;20231;-63
2022/07/02 01:19:25;;;;;;;5.28;1.73;;;;;;;15.61;76.66;102198.75;4987294;28;20026;-62
2022/07/02 01:22:15;;;;;;;3.83;1.40;;;;;;;15.59;76.76;102205.03;4986551;28;20014;-64
2022/07/02 01:24:41;;;;;;;3.25;1.35;;;;;;;15.58;76.43;102205.94;4987304;28;20030;-65
2022/07/02 01:27:07;;;;;;;6.28;1.55;;;;;;;15.58;76.36;102203.28;5003080;28;20075;-64
2022/07/02 01:29:33;;;;;;;4.38;1.40;;;;;;;15.54;76.14;102197.22;5006885;28;20025;-64
2022/07/02 01:31:58;;;;;;;7.57;1.88;;;;;;;15.58;76.02;102201.50;5005322;28;20030;-64
2022/07/02 01:34:23;;;;;;;4.15;1.30;;;;;;;15.51;75.68;102202.63;5000677;28;20018;-64
2022/07/02 01:36:49;;;;;;;6.57;1.52;;;;;;;15.46;75.58;102200.13;4987460;28;20046;-64
2022/07/02 01:39:15;;;;;;;4.80;1.63;;;;;;;15.43;75.82;102205.53;4986371;28;20014;-62
2022/07/02 01:41:40;;;;;;;6.65;1.42;;;;;;;15.37;75.65;102211.91;4987743;28;20436;-64
2022/07/02 01:44:09;;;;;;;4.72;1.10;;;;;;;15.38;75.74;102207.47;4989097;28;20540;-64
2022/07/02 01:46:35;;;;;;;4.82;1.40;;;;;;;15.37;75.43;102208.38;4990462;28;20938;-63
2022/07/02 01:49:00;;;;;;;6.13;1.55;;;;;;;15.34;75.39;102214.66;4986533;28;20030;-64
2022/07/02 01:51:26;;;;;;;3.88;1.20;;;;;;;15.26;75.49;102204.28;4987495;28;20026;-63
2022/07/02 01:53:51;;;;;;;2.85;1.10;;;;;;;15.31;75.49;102201.50;5000521;28;20477;-64
2022/07/02 01:56:16;;;;;;;4.97;1.30;;;;;;;15.30;75.51;102210.38;5005821;28;20022;-64
2022/07/02 01:58:42;;;;;;;3.10;1.10;;;;;;;15.29;75.12;102211.28;5004946;28;20112;-63
2022/07/02 02:01:07;;;;;;;5.47;1.33;;;;;;;15.32;75.19;102210.34;5003966;28;20038;-64
2022/07/02 02:03:33;;;;;;;3.55;1.77;;;;;;;15.31;74.90;102201.50;4987471;28;20030;-63
2022/07/02 02:05:58;;;;;;;4.00;1.30;;;;;;;15.24;74.79;102200.81;4986307;28;20030;-63
2022/07/02 02:08:23;;;;;;;5.28;1.15;;;;;;;15.20;75.26;102209.78;4986466;28;20125;-62
2022/07/02 02:10:50;;;;;;;2.97;1.30;;;;;;;15.22;75.14;102207.09;4986157;28;20037;-65
2022/07/02 02:13:15;;;;;;;4.30;1.05;;;;;;;15.26;73.89;102201.63;4984499;28;20401;-64
2022/07/02 02:15:41;;;;;;;5.20;1.58;;;;;;;15.33;73.53;102199.66;4985723;28;20062;-63
2022/07/02 02:18:06;;;;;;;6.05;1.05;;;;;;;15.42;72.96;102206.47;4986351;28;20022;-63
2022/07/02 02:20:31;;;;;;;3.45;1.17;;;;;;;15.49;72.18;102199.16;4973317;28;20088;-64
2022/07/02 02:22:57;;;;;;;2.05;0.95;;;;;;;15.53;71.45;102200.78;4967594;28;20026;-63
2022/07/02 02:25:23;;;;;;;5.15;1.15;;;;;;;15.54;71.47;102197.22;4966303;28;20038;-63
2022/07/02 02:27:48;;;;;;;3.20;1.30;;;;;;;15.49;72.09;102202.69;4970591;28;20031;-63
2022/07/02 02:30:14;;;;;;;6.45;1.23;;;;;;;15.46;72.00;102202.78;4969992;28;20054;-63
2022/07/02 02:32:39;;;;;;;1.75;0.80;;;;;;;15.46;72.21;102207.22;4970147;28;20122;-63
2022/07/02 02:35:05;;;;;;;1.50;0.90;;;;;;;15.39;72.35;102203.91;4973254;28;20113;-63
2022/07/02 02:37:31;;;;;;;8.35;1.30;;;;;;;15.43;72.13;102207.31;4983351;28;20081;-64
2022/07/02 02:39:56;;;;;;;5.28;1.33;;;;;;;15.36;72.16;102207.53;4988339;28;20030;-64
2022/07/02 02:42:21;;;;;;;3.72;1.10;;;;;;;15.34;72.50;102201.38;4988985;28;20027;-64
2022/07/02 02:44:47;;;;;;;5.95;0.90;;;;;;;15.34;72.60;102201.38;5006631;28;20488;-65
2022/07/02 02:47:12;;;;;;;3.83;1.23;;;;;;;15.35;72.60;102204.94;4989634;28;20034;-64
2022/07/02 02:49:38;;;;;;;1.58;0.93;;;;;;;15.33;72.53;102198.78;4989063;28;20022;-63
2022/07/02 02:52:03;;;;;;;1.80;0.98;;;;;;;15.29;72.56;102198.00;4988962;28;20029;-66
2022/07/02 02:54:28;;;;;;;5.80;1.25;;;;;;;15.31;72.51;102195.28;4998187;28;20083;-65
2022/07/02 02:56:54;;;;;;;7.28;1.38;;;;;;;15.20;72.86;102200.97;5009092;28;20144;-65
2022/07/02 02:59:19;;;;;;;4.10;1.13;;;;;;;15.15;73.28;102201.97;5008410;28;20050;-65
2022/07/02 03:01:44;;;;;;;3.83;1.10;;;;;;;15.10;73.61;102195.94;4998072;28;20625;-63
2022/07/02 03:04:10;;;;;;;2.83;1.58;;;;;;;14.99;74.07;102200.72;4988352;28;20026;-65
2022/07/02 03:06:35;;;;;;;5.43;1.30;;;;;;;14.90;74.53;102202.72;4995735;28;20022;-65
2022/07/02 03:09:00;;;;;;;7.57;1.20;;;;;;;14.82;75.14;102196.81;5009184;28;20511;-65
2022/07/02 03:11:26;;;;;;;5.97;1.33;;;;;;;14.77;75.38;102202.22;5005219;28;20060;-63
2022/07/02 03:13:51;;;;;;;6.13;1.52;;;;;;;14.68;75.67;102212.22;5009144;28;20045;-65
2022/07/02 03:16:16;;;;;;;1.30;1.02;;;;;;;14.67;76.01;102208.72;5008206;28;20036;-64
2022/07/02 03:18:42;;;;;;;3.45;1.52;;;;;;;14.63;75.91;102213.22;5008890;28;20022;-65
2022/07/02 03:21:07;;;;;;;7.75;1.55;;;;;;;14.64;76.59;102211.44;5006513;28;20063;-66
2022/07/02 03:23:33;;;;;;;3.20;1.25;;;;;;;14.56;76.69;102214.31;5009056;28;20044;-65
2022/07/02 03:25:58;;;;;;;4.35;1.73;;;;;;;14.60;76.99;102212.47;5007367;28;20026;-66
2022/07/02 03:28:23;;;;;;;7.35;1.77;;;;;;;14.58;76.92;102223.09;5008711;28;20022;-63
2022/07/02 03:30:49;;;;;;;3.72;1.70;;;;;;;14.47;77.59;102225.19;4990720;28;20086;-64
2022/07/02 03:33:14;;;;;;;3.40;1.50;;;;;;;14.38;78.05;102227.19;4986418;28;20036;-62
2022/07/02 03:35:40;;;;;;;3.90;1.40;;;;;;;14.39;78.31;102239.53;4990050;28;20432;-63
2022/07/02 03:38:05;;;;;;;5.13;1.60;;;;;;;14.45;78.42;102237.63;4997818;28;20080;-65
2022/07/02 03:40:31;;;;;;;6.30;1.65;;;;;;;14.40;78.34;102240.41;4990706;28;20198;-63
2022/07/02 03:42:56;;;;;;;6.50;1.33;;;;;;;14.39;78.55;102228.06;5004376;28;20036;-63
2022/07/02 03:45:22;;;;;;;2.83;1.50;;;;;;;14.31;79.01;102235.34;5002545;28;20058;-63
2022/07/02 03:47:47;;;;;;;5.25;1.70;;;;;;;14.26;79.27;102232.81;4999036;28;20030;-61
2022/07/02 03:50:12;;;;;;;3.78;1.48;;;;;;;14.21;79.49;102235.59;5000917;28;20053;-63
2022/07/02 03:52:39;;;;;;;5.53;1.50;;;;;;;14.19;79.67;102236.53;5006983;28;20022;-63
2022/07/02 03:55:05;;;;;;;4.50;1.85;;;;;;;14.17;79.94;102238.38;5000591;28;20049;-62
2022/07/02 03:57:31;;;;;;;2.42;1.45;;;;;;;14.24;79.96;102237.31;4997484;28;20109;-63
2022/07/02 03:59:56;;;;;;;4.55;1.80;;;;;;;14.21;80.45;102234.75;5001686;28;20157;-66
2022/07/02 04:02:22;;;;;;;8.68;1.75;;;;;;;14.19;80.61;102242.72;5001479;28;20129;-62
2022/07/02 04:04:48;;;;;;;3.80;1.58;;;;;;;14.16;80.61;102242.81;4998267;28;20030;-63
2022/07/02 04:07:13;;;;;;;7.13;1.85;;;;;;;14.12;81.04;102242.00;4999063;28;20030;-62
2022/07/02 04:09:39;;;;;;;2.88;1.55;;;;;;;14.20;81.21;102243.56;5003995;28;20101;-63
2022/07/02 04:12:04;;;;;;;3.67;1.58;;;;;;;14.23;80.83;102243.50;5006296;28;20484;-64
2022/07/02 04:14:30;;;;;;;4.40;1.50;;;;;;;14.24;81.04;102240.81;5003648;28;20536;-62
2022/07/02 04:16:55;;;;;;;4.20;1.77;;;;;;;14.32;80.39;102242.38;4998617;28;20057;-63
2022/07/02 04:19:21;;;;;;;3.90;1.50;;;;;;;14.42;80.56;102243.88;5000862;28;20481;-64
2022/07/02 04:21:46;;;;;;;2.67;1.40;;;;;;;14.43;80.27;102244.75;4999439;28;20603;-63
2022/07/02 04:24:11;;;;;;;5.22;1.80;;;;;;;14.50;80.04;102251.63;5002807;28;20506;-64
2022/07/02 04:26:37;;;;;;;6.75;1.85;;;;;;;14.59;79.98;102250.47;5000270;28;20026;-63
2022/07/02 04:29:02;;;;;;;4.57;1.52;;;;;;;14.61;79.89;102249.56;5004930;28;20037;-63
2022/07/02 04:31:28;;;;;;;2.83;1.30;;;;;;;14.78;79.36;102245.56;5002756;28;20026;-62
2022/07/02 04:33:53;;;;;;;5.55;1.50;;;;;;;14.90;78.73;102245.19;5006086;28;20026;-63
2022/07/02 04:36:18;;;;;;;4.40;1.25;;;;;;;15.02;78.10;102243.09;5005946;28;20033;-65
2022/07/02 04:38:44;;;;;;;6.10;1.80;;;;;;;15.07;77.90;102237.63;4999872;28;20050;-64
2022/07/02 04:41:09;;;;;;;4.68;1.90;;;;;;;15.20;77.29;102246.94;4993634;28;20457;-63
2022/07/02 04:43:34;;;;;;;5.88;1.45;;;;;;;15.30;76.85;102242.25;4999449;28;20023;-62
2022/07/02 04:46:00;;;;;;;6.45;2.03;;;;;;;15.31;76.42;102243.09;5003247;28;20053;-64
2022/07/02 04:48:25;;;;;;;2.75;1.20;;;;;;;15.37;76.51;102238.47;5002136;28;20026;-64
2022/07/02 04:50:50;;;;;;;6.00;1.60;;;;;;;15.46;76.23;102241.75;5004110;28;20034;-64
2022/07/02 04:53:16;;;;;;;3.63;1.20;;;;;;;15.50;75.92;102246.91;5004185;28;20026;-63
2022/07/02 04:55:41;;;;;;;4.22;1.45;;;;;;;15.50;75.95;102240.75;5004504;28;20046;-65
2022/07/02 04:58:06;;;;;;;7.90;1.52;;;;;;;15.58;76.02;102236.03;4991115;28;20298;-64
2022/07/02 05:00:32;;;;;;;2.88;1.10;;;;;;;15.66;75.49;102247.28;4987773;28;20050;-63
2022/07/02 05:02:57;;;;;;;5.38;1.63;;;;;;;15.74;75.32;102244.34;4998861;28;20026;-64
2022/07/02 05:05:22;;;;;;;4.07;1.60;;;;;;;15.79;75.28;102244.22;5006558;28;20053;-64
2022/07/02 05:07:48;;;;;;;4.57;1.20;;;;;;;15.90;74.88;102242.03;5005244;28;20017;-64
2022/07/02 05:10:13;;;;;;;5.82;1.52;;;;;;;15.94;74.94;102241.94;5005831;28;20365;-63
2022/07/02 05:12:38;;;;;;;4.13;1.30;;;;;;;16.05;74.76;102239.84;5000997;28;22402;-63
2022/07/02 05:15:04;;;;;;;5.85;1.27;;;;;;;16.06;74.09;102238.91;4988043;28;20477;-65
2022/07/02 05:17:30;;;;;;;6.13;1.70;;;;;;;16.06;74.09;102246.88;4985181;28;20022;-63
2022/07/02 05:19:55;;;;;;;6.93;1.70;;;;;;;16.19;73.54;102252.63;4985615;28;20110;-64
2022/07/02 05:22:20;;;;;;;6.07;1.52;;;;;;;16.27;73.61;102255.91;4984584;28;20125;-63
2022/07/02 05:24:46;;;;;;;4.88;1.40;;;;;;;16.34;72.94;102251.22;4986129;28;20109;-63
2022/07/02 05:27:11;;;;;;;6.50;1.20;;;;;;;16.42;72.83;102246.50;4986496;28;20069;-63
2022/07/02 05:29:36;;;;;;;6.65;1.40;;;;;;;16.48;72.75;102257.84;4985690;28;20038;-64
2022/07/02 05:32:02;;;;;;;2.35;1.20;;;;;;;16.50;72.66;102253.34;4986514;28;20026;-64
2022/07/02 05:34:27;;;;;;;1.27;1.08;;;;;;;16.58;72.79;102245.06;4984836;28;20026;-63
2022/07/02 05:36:52;;;;;;;7.30;1.63;;;;;;;16.62;72.25;102244.03;4987137;28;20035;-64
2022/07/02 05:39:18;;;;;;;7.13;1.40;;;;;;;16.59;72.96;102249.47;4986011;28;20113;-64
2022/07/02 05:41:43;;;;;;;5.10;1.33;;;;;;;16.67;72.48;102250.03;4986532;28;20030;-64
2022/07/02 05:44:09;;;;;;;6.72;1.48;;;;;;;16.78;72.04;102244.31;4984929;28;20101;-63
2022/07/02 05:46:34;;;;;;;7.95;1.58;;;;;;;16.85;71.84;102245.81;4987549;28;20100;-65
2022/07/02 05:49:00;;;;;;;4.60;1.30;;;;;;;16.79;71.88;102244.25;4986070;28;20066;-63
2022/07/02 05:51:25;;;;;;;3.58;1.35;;;;;;;16.93;71.69;102240.19;4986836;28;20064;-63
2022/07/02 05:53:50;;;;;;;5.22;1.10;;;;;;;16.99;71.50;102241.75;4987089;28;20479;-63
2022/07/02 05:56:16;;;;;;;5.63;1.65;;;;;;;17.03;71.38;102243.38;4985161;28;20144;-63
2022/07/02 05:58:41;;;;;;;3.45;1.80;;;;;;;17.01;71.88;102245.25;4986964;28;20038;-64
2022/07/02 06:01:07;;;;;;;7.82;1.42;;;;;;;17.10;71.40;102239.56;4986523;28;20029;-65
2022/07/02 06:03:32;;;;;;;4.43;1.55;;;;;;;17.13;70.68;102244.78;4988581;28;20101;-65
2022/07/02 06:08:41;;;;;;;9.50;1.45;;;;;;;17.15;71.05;102247.38;4990703;28;20084;-65
2022/07/02 06:11:06;;;;;;;6.68;1.20;;;;;;;17.31;70.37;102253.00;4990185;28;20101;-65
2022/07/02 06:13:32;;;;;;;2.72;1.38;;;;;;;17.39;69.75;102244.66;4985880;28;20054;-64
2022/07/02 06:15:58;;;;;;;4.00;1.27;;;;;;;17.51;69.23;102254.84;4979365;28;20045;-64
2022/07/02 06:18:23;;;;;;;2.90;1.27;;;;;;;17.62;69.29;102259.72;4971989;28;20053;-64
2022/07/02 06:20:48;;;;;;;4.50;1.20;;;;;;;17.61;68.33;102273.97;4986988;28;20389;-63
2022/07/02 06:23:16;;;;;;;4.63;1.30;;;;;;;17.73;68.45;102269.06;4991937;28;20018;-62
2022/07/02 06:25:41;;;;;;;4.38;1.35;;;;;;;17.82;68.17;102274.00;4988281;28;20524;-63
2022/07/02 06:28:07;;;;;;;2.90;1.38;;;;;;;17.90;67.85;102268.34;4990580;28;20046;-65
2022/07/02 06:30:32;;;;;;;3.38;1.35;;;;;;;17.90;67.69;102265.69;4989771;28;20421;-63
2022/07/02 06:32:57;;;;;;;5.07;1.20;;;;;;;17.94;66.85;102278.81;4989568;28;20066;-63
2022/07/02 06:35:23;;;;;;;4.40;1.15;;;;;;;17.99;66.94;102280.41;4988964;28;20112;-63
2022/07/02 06:37:49;;;;;;;3.30;1.20;;;;;;;18.04;66.22;102281.09;4987916;28;20181;-64
2022/07/02 06:40:15;;;;;;;2.70;1.13;;;;;;;18.09;66.41;102288.91;4988819;28;20019;-64
2022/07/02 06:42:40;;;;;;;4.25;1.48;;;;;;;18.25;65.23;102281.16;4982940;28;20029;-63
2022/07/02 06:45:06;;;;;;;3.60;1.20;;;;;;;18.30;65.63;102281.78;4985636;28;20015;-64
2022/07/02 06:47:32;;;;;;;6.47;1.67;;;;;;;18.30;64.59;102287.13;4989562;28;20022;-65
2022/07/02 06:49:58;;;;;;;4.28;1.20;;;;;;;18.39;63.94;102281.41;4989335;28;20753;-64
2022/07/02 06:52:24;;;;;;;6.15;1.08;;;;;;;18.50;63.64;102280.06;4990429;28;20042;-63
2022/07/02 06:54:49;;;;;;;1.95;1.00;;;;;;;18.51;62.95;102281.81;4989328;28;20101;-63
2022/07/02 06:57:15;;;;;;;3.90;0.90;;;;;;;18.57;62.43;102284.16;4988469;28;20376;-62
2022/07/02 06:59:40;;;;;;;3.20;1.00;;;;;;;18.68;61.77;102273.91;4989657;28;20018;-64
2022/07/02 07:02:06;;;;;;;4.80;1.08;;;;;;;18.81;61.28;102270.63;4990618;28;20030;-63
2022/07/02 07:04:32;;;;;;;4.97;0.80;;;;;;;18.77;60.49;102271.72;4988543;28;20010;-63
2022/07/02 07:07:00;;;;;;;1.83;0.98;;;;;;;18.78;59.18;102268.16;4987880;28;20033;-63
2022/07/02 07:09:27;;;;;;;2.15;1.05;;;;;;;18.83;58.36;102276.78;4988122;28;20034;-64
2022/07/02 07:11:53;;;;;;;1.50;0.70;;;;;;;18.94;58.34;102271.81;4986393;28;20371;-64
2022/07/02 07:14:18;;;;;;;3.67;1.08;;;;;;;18.96;58.89;102271.72;4986998;28;20077;-64
2022/07/02 07:16:44;;;;;;;4.38;1.42;;;;;;;19.14;58.84;102275.38;4987376;28;20029;-64
2022/07/02 07:19:10;;;;;;;2.80;1.05;;;;;;;19.18;58.49;102281.44;4987715;28;20429;-63
2022/07/02 07:21:37;;;;;;;2.67;0.68;;;;;;;19.24;58.53;102278.50;4989397;28;20105;-64
2022/07/02 07:24:04;;;;;;;1.80;0.63;;;;;;;19.28;58.27;102276.53;4988805;28;20453;-63
2022/07/02 07:26:29;;;;;;;3.67;0.98;;;;;;;19.25;58.50;102271.31;4987979;28;20022;-63
2022/07/02 07:28:54;;;;;;;2.53;0.63;;;;;;;19.30;56.23;102269.31;4988009;28;20014;-64
2022/07/02 07:31:20;;;;;;;2.05;0.60;;;;;;;19.34;55.36;102270.00;4988551;28;20373;-63
2022/07/02 07:33:49;;;;;;;2.42;0.80;;;;;;;19.34;54.98;102268.22;4988974;28;20026;-64
2022/07/02 07:36:14;;;;;;;;;;;;;;;19.55;54.67;102268.97;4974046;28;20038;-63
2022/07/02 07:38:40;;;;;;;3.95;0.90;;;;;;;19.58;55.81;102262.59;4972268;28;20379;-64
2022/07/02 07:41:05;;;;;;;2.83;0.68;;;;;;;19.60;53.74;102263.41;4987777;28;20062;-64
2022/07/02 07:43:31;;;;;;;3.85;0.60;;;;;;;19.76;53.03;102259.94;4988641;28;20630;-64
2022/07/02 07:45:56;;;;;;;3.40;0.60;;;;;;;19.75;53.38;102263.56;4988967;28;20464;-63
2022/07/02 07:48:21;;;;;;;3.20;0.80;;;;;;;19.74;53.61;102269.88;4987784;28;20038;-64
2022/07/02 07:50:47;;;;;;;1.70;0.88;;;;;;;19.83;52.81;102269.38;4989271;28;20069;-64
2022/07/02 07:53:12;;;;;;;3.58;0.77;;;;;;;20.00;52.29;102267.66;4988510;28;20473;-65
2022/07/02 07:55:39;;;;;;;2.88;0.77;;;;;;;20.11;52.38;102264.47;4994643;28;20040;-66
2022/07/02 07:58:04;;;;;;;2.17;0.63;;;;;;;20.16;51.20;102265.06;4996817;28;20456;-63
2022/07/02 08:00:30;;;;;;;1.73;0.57;;;;;;;20.30;51.45;102257.22;4985973;28;20175;-63
2022/07/02 08:02:55;;;;;;;2.92;0.65;;;;;;;20.38;51.08;102262.13;4986723;28;20481;-63
2022/07/02 08:05:20;;;;;;;3.25;0.68;;;;;;;20.46;50.59;102253.69;4988126;28;20022;-64
2022/07/02 08:07:46;;;;;;;3.35;0.77;;;;;;;20.50;50.95;102259.75;4988902;28;20053;-64
2022/07/02 08:10:11;;;;;;;1.17;0.82;;;;;;;20.46;50.01;102253.69;4986806;28;20078;-63
2022/07/02 08:12:37;;;;;;;1.27;0.50;;;;;;;20.60;49.50;102261.00;4999079;28;20242;-63
2022/07/02 08:15:04;;;;;;;1.20;0.55;;;;;;;20.67;50.49;102262.38;4993672;28;20034;-63
2022/07/02 08:17:29;;;;;;;2.53;0.60;;;;;;;20.71;48.49;102255.91;4987347;28;20116;-63
2022/07/02 08:19:55;;;;;;;3.38;0.52;;;;;;;20.73;48.60;102258.50;4988155;28;20692;-65
2022/07/02 08:22:21;;;;;;;0.82;0.55;;;;;;;20.84;48.00;102250.72;4988746;28;20049;-64
2022/07/02 08:24:46;;;;;;;1.90;0.60;;;;;;;20.94;48.34;102264.53;5008100;28;20538;-65
2022/07/02 08:27:11;;;;;;;3.15;0.80;;;;;;;21.02;47.17;102257.88;4997031;28;20018;-64
2022/07/02 08:29:37;;;;;;;2.70;0.65;;;;;;;21.05;46.55;102260.38;4988251;28;20045;-64
2022/07/02 08:32:06;;;;;;;1.92;0.70;;;;;;;20.95;46.47;102260.03;4987061;28;20473;-64
2022/07/02 08:34:32;;;;;;;1.00;0.60;;;;;;;20.98;47.14;102256.31;4987776;28;20366;-64
2022/07/02 08:36:57;;;;;;;3.35;0.80;;;;;;;21.03;47.98;102257.78;4987177;28;20074;-65
2022/07/02 08:39:23;;;;;;;0.88;0.55;;;;;;;21.16;48.16;102263.31;4986611;28;20095;-63
2022/07/02 08:41:49;;;;;;;4.65;0.88;;;;;;;21.23;46.89;102258.47;4992062;28;20030;-64
2022/07/02 08:44:16;;;;;;;4.70;0.82;;;;;;;21.29;46.65;102265.31;4987675;28;20026;-63
2022/07/02 08:46:41;;;;;;;1.60;0.80;;;;;;;21.09;45.01;102256.56;4986886;28;20121;-68
2022/07/02 08:49:08;;;;;;;1.02;0.50;;;;;;;21.27;45.31;102269.88;4988171;28;20118;-67
2022/07/02 08:51:34;;;;;;;3.05;0.70;;;;;;;21.32;46.20;102268.69;4988139;28;20489;-68
2022/07/02 08:54:00;;;;;;;1.77;0.60;;;;;;;21.45;45.34;102258.09;4984033;28;20026;-69
2022/07/02 08:56:29;;;;;;;2.15;0.70;;;;;;;21.44;44.77;102253.72;5005428;28;20030;-67
2022/07/02 08:58:55;;;;;;;2.08;0.68;;;;;;;21.46;44.46;102246.41;4999167;28;20164;-68
2022/07/02 09:01:21;;;;;;;2.53;0.60;;;;;;;21.45;45.39;102247.38;4986428;28;20124;-68
2022/07/02 09:03:49;;;;;;;2.22;0.70;;;;;;;21.59;45.14;102251.06;4986237;28;20538;-67
2022/07/02 09:06:16;;;;;;;3.28;0.60;;;;;;;21.51;44.79;102246.16;4985850;28;20388;-69
2022/07/02 09:08:42;;;;;;;2.15;0.55;;;;;;;21.54;44.28;102247.78;4985716;28;20033;-70
2022/07/02 09:11:08;;;;;;;1.35;0.60;;;;;;;21.63;44.35;102228.47;4982106;28;20034;-69
2022/07/02 09:13:34;;;;;;;3.83;0.90;;;;;;;21.73;44.79;102234.16;4968229;28;20042;-69
2022/07/02 09:15:59;;;;;;;2.72;0.73;;;;;;;21.88;44.18;102237.78;4985834;28;20536;-69
2022/07/02 09:18:25;;;;;;;2.22;0.60;;;;;;;21.96;45.36;102230.13;4984844;28;20465;-69
2022/07/02 09:20:50;;;;;;;5.40;0.70;;;;;;;21.97;45.19;102236.34;4985926;28;20038;-68
2022/07/02 09:23:21;;;;;;;3.00;1.13;;;;;;;21.98;46.13;102230.03;4987618;28;20022;-69
2022/07/02 09:25:48;;;;;;;2.35;0.63;;;;;;;22.13;45.96;102232.75;4985859;28;20022;-68
2022/07/02 09:28:14;;;;;;;3.53;0.80;;;;;;;21.95;46.63;102223.03;4985211;28;20022;-71
2022/07/02 09:30:40;;;;;;;2.08;0.70;;;;;;;22.01;46.00;102242.41;4986750;28;20029;-71
2022/07/02 09:33:28;;;;;;;1.02;0.73;;;;;;;22.06;46.42;102227.75;4985586;28;20022;-70
2022/07/02 09:35:54;;;;;;;3.60;0.70;;;;;;;22.19;45.79;102230.53;4984852;28;20120;-72
2022/07/02 09:38:20;;;;;;;6.75;0.82;;;;;;;22.34;46.33;102225.19;4985554;28;20499;-70
2022/07/02 09:40:52;;;;;;;2.47;0.60;;;;;;;22.41;46.11;102228.34;4982819;28;20026;-68
2022/07/02 09:43:38;;;;;;;1.75;0.60;;;;;;;22.58;43.46;102221.94;4983603;28;20022;-70
2022/07/02 09:46:13;;;;;;;1.48;0.68;;;;;;;22.59;43.10;102221.84;4983408;28;20061;-69
2022/07/02 09:48:39;;;;;;;1.70;0.70;;;;;;;22.78;42.82;102209.06;4983789;28;20030;-70
2022/07/02 09:51:04;;;;;;;4.38;0.98;;;;;;;22.82;44.01;102215.97;4986463;28;20725;-70
2022/07/02 09:53:29;;;;;;;5.05;1.02;;;;;;;22.76;44.26;102209.16;4983744;28;20014;-71
2022/07/02 09:55:55;;;;;;;3.78;1.08;;;;;;;22.84;44.02;102203.28;4985196;28;20039;-71
2022/07/02 09:58:25;;;;;;;1.52;0.80;;;;;;;23.13;42.28;102205.88;4984509;28;20030;-69
2022/07/02 10:00:50;;;;;;;3.38;0.75;;;;;;;23.18;41.34;102211.81;4986674;28;20049;-70
2022/07/02 10:03:15;;;;;;;2.67;0.88;;;;;;;23.27;42.27;102217.56;4984983;28;20382;-71
2022/07/02 10:05:45;;;;;;;1.15;0.73;;;;;;;23.42;41.40;102208.47;4987407;28;20019;-68
2022/07/02 10:08:10;;;;;;;2.25;0.68;;;;;;;23.27;40.17;102221.09;4986067;28;20469;-69
2022/07/02 10:10:38;;;;;;;2.22;0.65;;;;;;;23.54;40.46;102205.94;4986909;28;20026;-67
2022/07/02 10:13:05;;;;;;;3.03;0.65;;;;;;;23.90;40.13;102209.72;4985857;28;20409;-70
2022/07/02 10:15:32;;;;;;;1.83;0.80;;;;;;;23.97;39.38;102207.50;4986366;28;20113;-70
2022/07/02 10:18:00;;;;;;;2.85;1.00;;;;;;;24.10;39.36;102204.78;4988412;28;20097;-69
2022/07/02 10:20:25;;;;;;;1.75;0.90;;;;;;;24.13;40.57;102195.63;4986183;28;20389;-70
2022/07/02 10:22:51;;;;;;;1.58;0.85;;;;;;;24.39;40.39;102191.13;4985639;28;20022;-71
2022/07/02 10:25:19;;;;;;;3.42;0.80;;;;;;;24.61;38.59;102201.22;4985524;28;20022;-68
2022/07/02 10:27:46;;;;;;;0.73;0.60;;;;;;;24.54;38.04;102199.94;4986379;28;20146;-70
2022/07/02 10:30:13;;;;;;;2.47;0.85;;;;;;;23.98;38.22;102193.94;4984552;28;20022;-70
2022/07/02 10:33:05;;;;;;;1.95;0.60;;;;;;;24.34;38.23;102196.84;4984560;28;20440;-68
2022/07/02 10:35:33;;;;;;;3.20;0.63;;;;;;;24.51;38.07;102193.91;4985546;28;20496;-69
2022/07/02 10:38:00;;;;;;;3.28;0.80;;;;;;;24.68;38.77;102195.38;4984839;28;20037;-70
2022/07/02 10:40:26;;;;;;;1.60;0.80;;;;;;;24.84;36.13;102181.63;4979158;28;20058;-68
2022/07/02 10:42:53;;;;;;;2.35;0.80;;;;;;;24.88;35.27;102177.75;4985086;28;20117;-70
2022/07/02 10:45:20;;;;;;;1.83;0.75;;;;;;;24.70;36.51;102178.13;4984479;28;20050;-72
2022/07/02 10:48:12;;;;;;;2.10;0.77;;;;;;;24.72;36.25;102184.22;4985572;28;20046;-70
2022/07/02 10:50:39;;;;;;;2.90;0.65;;;;;;;24.95;34.58;102179.00;4982289;28;20128;-69
2022/07/02 10:53:08;;;;;;;1.92;0.90;;;;;;;25.21;35.02;102175.31;4989604;28;20033;-70
2022/07/02 10:55:34;;;;;;;2.45;1.00;;;;;;;25.23;35.26;102181.47;4987701;28;20026;-70
2022/07/02 10:58:02;;;;;;;1.52;0.52;;;;;;;25.42;36.24;102180.06;4988502;28;20033;-70
2022/07/02 11:00:33;;;;;;;3.40;0.88;;;;;;;25.69;34.83;102182.50;4987712;28;21030;-70
2022/07/02 11:03:15;;;;;;;4.68;0.90;;;;;;;25.69;35.89;102176.25;4987174;28;20037;-70
2022/07/02 11:06:04;;;;;;;3.17;0.80;;;;;;;26.12;35.67;102178.25;4987083;28;20054;-69
2022/07/02 11:08:43;;;;;;;2.03;0.90;;;;;;;26.18;34.11;102185.00;4986010;28;20468;-70
2022/07/02 11:11:10;;;;;;;3.90;1.13;;;;;;;26.41;33.39;102176.91;4987750;28;20029;-69
2022/07/02 11:13:46;;;;;;;4.30;1.20;;;;;;;26.47;33.52;102175.56;4989495;28;20100;-71
2022/07/02 11:16:23;;;;;;;4.55;0.90;;;;;;;26.51;33.55;102173.47;4987552;28;20026;-71
2022/07/02 11:18:49;;;;;;;2.50;0.90;;;;;;;26.56;33.37;102182.91;4987312;28;20030;-70
2022/07/02 11:21:15;;;;;;;2.45;0.95;;;;;;;26.55;33.98;102174.94;4988052;28;20092;-70
2022/07/02 11:23:41;;;;;;;1.90;0.93;;;;;;;26.35;34.97;102174.72;4988944;28;20026;-70
2022/07/02 11:26:09;;;;;;;4.43;1.15;;;;;;;26.25;34.92;102172.72;4987335;28;20014;-72